Главная страница
METAR-TAF:

METAR-TAF

Аэропорты :

Лонгйир, Норвегия

Свальбард

широта: 78-15N, долгота: 015-28E, высота над уровнем моря: 2 м

Текущие метеонаблюдения

Эта сводка был подготовлена 37 минут назад, в 11:50 UTC
Ветер 4 Узел от восточно-юго-восточный
Температура -2°C
Влажность 69%
Давление 1015 hPa
Видимость 10 км и более
небольшая облачность на высоте 2000 фута
Отдельные облака на высоте 3500 фута

METAR: ENSB 221150Z 11004KT 9999 FEW020 SCT035 M02/M07 Q1015 RMK WIND 1400FT 14008KT

Время: 13:27 (12:27 UTC)

Прогноз

Прогноз действительный с 22-го 12 UTC до 23-го 12 UTC
Ветер 10 Узел от юго-восточный
Видимость 10 км и более
небольшая облачность на высоте 2500 фута
Отдельные облака на высоте 5000 фута

TAF: ENSB 2212/2312 13010KT 9999 FEW025 SCT050

Метеонаблюдения и прогнозы для более 4000 аэропортов (сводки METAR и TAF).

Имеющиеся станции представлены на карте желтыми и красными точками.

Чтобы увидеть название станции, наведите на нее мышь.

Затем щелкните, чтобы увидеть метеонаблюдения и метеопрогнозы.

Управление картой: чтобы увеличить масштаб, щелкните зеленые кнопки с черным крестиком; чтобы уменьшить масштаб, щелкните зеленую кнопку с тире; для просмотра соседних карт щелкайте зеленые стрелки.


METAR-TAF: